Time;durP1;ratioP1;P1;durP2;ratioP2;P2;SDS_P1;SDS_P2;PMS_P1;PMS_P2;Temp;Humidity;BMP_temperature;BMP_pressure;BME280_temperature;BME280_humidity;BME280_pressure;Samples;Min_cycle;Max_cycle;Signal;HPM_P1;HPM_P2
2023/09/27 00:02:14;;;;;;;6.18;5.25;;;;;;;19.90;53.97;100223.50;4953987;29;20055;-85
2023/09/27 00:04:41;;;;;;;5.10;4.45;;;;;;;19.88;54.07;100218.31;4953721;28;20055;-83
2023/09/27 00:07:07;;;;;;;5.82;5.13;;;;;;;19.86;53.95;100208.75;4953299;29;20055;-83
2023/09/27 00:09:34;;;;;;;7.15;5.05;;;;;;;19.85;53.94;100212.41;4953367;28;20051;-82
2023/09/27 00:12:05;;;;;;;6.07;5.47;;;;;;;19.82;54.07;100208.19;4953456;28;20078;-83
2023/09/27 00:14:32;;;;;;;9.05;5.07;;;;;;;19.80;53.88;100204.78;4953508;28;20066;-82
2023/09/27 00:16:58;;;;;;;7.30;5.70;;;;;;;19.78;54.33;100206.75;4953619;29;20484;-82
2023/09/27 00:19:25;;;;;;;8.40;5.57;;;;;;;19.74;54.08;100211.50;4953368;29;20077;-82
2023/09/27 00:21:52;;;;;;;8.45;6.22;;;;;;;19.73;54.73;100211.69;4953132;29;20047;-83
2023/09/27 00:24:19;;;;;;;7.60;5.97;;;;;;;19.70;54.34;100214.59;4952529;28;20086;-82
2023/09/27 00:26:45;;;;;;;6.55;5.70;;;;;;;19.67;54.43;100221.91;4952398;28;20500;-82
2023/09/27 00:29:12;;;;;;;7.68;5.65;;;;;;;19.65;54.48;100223.88;4952378;29;20086;-82
2023/09/27 00:31:39;;;;;;;8.73;6.13;;;;;;;19.64;54.41;100227.53;4953127;28;20083;-82
2023/09/27 00:34:05;;;;;;;8.35;6.25;;;;;;;19.62;54.53;100229.47;4953285;28;20083;-82
2023/09/27 00:36:33;;;;;;;8.25;6.47;;;;;;;19.62;54.76;100218.78;4952086;29;20106;-82
2023/09/27 00:38:59;;;;;;;7.05;6.00;;;;;;;19.62;54.58;100217.97;4952047;29;20496;-82
2023/09/27 00:41:26;;;;;;;7.38;6.20;;;;;;;19.60;54.86;100220.78;4952959;28;20047;-81
2023/09/27 00:43:53;;;;;;;7.88;6.05;;;;;;;19.60;54.87;100230.59;4953026;29;20078;-82
2023/09/27 00:46:22;;;;;;;9.23;5.90;;;;;;;19.58;54.91;100236.06;4953194;29;20086;-82
2023/09/27 00:48:49;;;;;;;10.18;6.25;;;;;;;19.57;54.79;100244.19;4953170;29;20432;-81
2023/09/27 00:51:16;;;;;;;8.90;6.35;;;;;;;19.56;54.82;100230.03;4951681;28;20043;-82
2023/09/27 00:53:45;;;;;;;6.60;5.78;;;;;;;19.54;55.04;100231.97;4951791;28;20063;-85
2023/09/27 00:56:12;;;;;;;9.50;6.25;;;;;;;19.53;54.98;100235.63;4953035;29;20087;-83
2023/09/27 00:58:39;;;;;;;8.43;6.25;;;;;;;19.52;54.82;100241.94;4953193;29;20059;-82
2023/09/27 01:01:06;;;;;;;7.63;6.30;;;;;;;19.51;55.07;100245.63;4952695;29;20134;-82
2023/09/27 01:03:33;;;;;;;7.28;5.20;;;;;;;19.51;54.92;100253.63;4953155;28;20055;-83
2023/09/27 01:05:59;;;;;;;8.45;5.97;;;;;;;19.49;54.88;100248.41;4952680;28;20087;-82
2023/09/27 01:08:26;;;;;;;6.75;5.47;;;;;;;19.50;55.12;100262.59;4953265;28;20130;-82
2023/09/27 01:10:53;;;;;;;6.43;5.13;;;;;;;19.51;55.08;100253.63;4952921;28;20057;-83
2023/09/27 01:13:20;;;;;;;6.15;5.20;;;;;;;19.52;55.46;100260.66;4952884;28;20141;-82
2023/09/27 01:15:47;;;;;;;8.48;5.47;;;;;;;19.52;55.34;100249.97;4953013;29;20047;-81
2023/09/27 01:18:14;;;;;;;8.15;5.88;;;;;;;19.53;55.22;100257.00;4952826;29;20416;-82
2023/09/27 01:20:40;;;;;;;8.25;5.88;;;;;;;19.54;55.39;100250.66;4952554;29;20159;-82
2023/09/27 01:23:07;;;;;;;6.03;5.40;;;;;;;19.56;55.20;100251.38;4951640;29;20051;-83
2023/09/27 01:25:36;;;;;;;7.65;6.40;;;;;;;19.57;55.51;100253.06;4952745;28;20098;-82
2023/09/27 01:28:05;;;;;;;7.55;6.50;;;;;;;19.57;55.43;100253.06;4951715;29;20054;-81
2023/09/27 01:30:32;;;;;;;6.95;5.25;;;;;;;19.59;55.65;100244.94;4951532;29;20058;-81
2023/09/27 01:32:59;;;;;;;7.05;6.18;;;;;;;19.60;55.59;100246.63;4952728;28;20440;-82
2023/09/27 01:35:26;;;;;;;6.95;6.25;;;;;;;19.61;55.29;100241.16;4952652;28;20059;-84
2023/09/27 01:37:53;;;;;;;7.95;5.53;;;;;;;19.62;55.39;100248.16;4955496;29;20152;-82
2023/09/27 01:40:23;;;;;;;11.45;6.18;;;;;;;19.63;55.38;100249.03;4956526;29;20070;-83
2023/09/27 01:42:49;;;;;;;9.60;6.63;;;;;;;19.64;55.45;100251.56;4954974;28;20567;-82
2023/09/27 01:45:16;;;;;;;8.00;6.57;;;;;;;19.64;55.57;100256.91;4956294;28;20691;-81
2023/09/27 01:47:43;;;;;;;8.90;6.53;;;;;;;19.66;55.38;100256.75;4956242;28;20440;-82
2023/09/27 01:50:10;;;;;;;7.53;6.13;;;;;;;19.67;55.67;100250.44;4956228;28;20053;-82
2023/09/27 01:52:36;;;;;;;8.52;6.15;;;;;;;19.69;55.75;100261.00;4956185;28;20413;-83
2023/09/27 01:55:04;;;;;;;8.35;6.80;;;;;;;19.70;55.77;100257.34;4956269;28;20070;-83
2023/09/27 01:57:31;;;;;;;9.60;6.22;;;;;;;19.70;55.47;100258.16;4955919;28;20055;-82
2023/09/27 01:59:57;;;;;;;8.70;6.72;;;;;;;19.72;55.58;100263.38;4956145;28;20135;-84
2023/09/27 02:02:24;;;;;;;6.38;5.78;;;;;;;19.71;55.68;100265.22;4955871;28;20055;-82
2023/09/27 02:04:50;;;;;;;8.25;6.35;;;;;;;19.72;55.83;100255.38;4955579;28;20047;-81
2023/09/27 02:07:17;;;;;;;7.82;5.90;;;;;;;19.72;55.61;100260.72;4955083;28;20048;-82
2023/09/27 02:09:44;;;;;;;7.93;6.38;;;;;;;19.73;55.58;100259.75;4954747;29;20516;-82
2023/09/27 02:12:10;;;;;;;6.60;5.90;;;;;;;19.72;55.45;100269.56;4956002;28;20071;-85
2023/09/27 02:14:37;;;;;;;8.15;5.95;;;;;;;19.72;55.69;100268.72;4955480;29;20135;-83
2023/09/27 02:17:03;;;;;;;7.68;6.25;;;;;;;19.72;55.66;100269.56;4955810;28;20055;-82
2023/09/27 02:19:30;;;;;;;8.07;6.30;;;;;;;19.71;55.22;100265.22;4955768;28;20057;-82
2023/09/27 02:21:57;;;;;;;8.50;6.95;;;;;;;19.71;55.75;100267.03;4955976;28;20055;-82
2023/09/27 02:24:23;;;;;;;11.88;6.07;;;;;;;19.72;55.44;100268.72;4955313;28;20105;-83
2023/09/27 02:26:50;;;;;;;7.40;6.50;;;;;;;19.70;55.58;100271.53;4955728;29;20051;-82
2023/09/27 02:29:16;;;;;;;9.48;6.75;;;;;;;19.71;55.62;100272.38;4955598;29;20058;-82
2023/09/27 02:31:43;;;;;;;10.85;7.22;;;;;;;19.70;55.73;100257.34;4955754;29;20125;-82
2023/09/27 02:34:11;;;;;;;8.40;6.70;;;;;;;19.69;55.71;100258.31;4953899;29;20051;-83
2023/09/27 02:36:38;;;;;;;6.78;6.13;;;;;;;19.67;55.94;100258.47;4954376;28;20071;-83
2023/09/27 02:39:05;;;;;;;9.27;6.20;;;;;;;19.66;55.47;100254.94;4955508;28;20059;-82
2023/09/27 02:41:31;;;;;;;7.95;6.47;;;;;;;19.65;55.71;100255.91;4954181;28;20052;-82
2023/09/27 02:43:58;;;;;;;9.48;6.90;;;;;;;19.63;55.83;100252.53;4955067;28;20086;-85
2023/09/27 02:46:24;;;;;;;7.18;6.25;;;;;;;19.62;56.11;100250.84;4953985;29;20520;-82
2023/09/27 02:48:51;;;;;;;6.07;5.47;;;;;;;19.60;55.71;100254.63;4954823;28;20055;-82
2023/09/27 02:51:18;;;;;;;7.80;6.50;;;;;;;19.56;56.01;100246.06;4955227;29;20051;-81
2023/09/27 02:53:44;;;;;;;9.88;7.32;;;;;;;19.55;55.96;100241.66;4954632;29;20134;-82
2023/09/27 02:56:11;;;;;;;7.25;6.40;;;;;;;19.51;56.00;100241.09;4954996;28;20083;-83
2023/09/27 02:58:38;;;;;;;9.00;7.10;;;;;;;19.48;56.08;100237.84;4954789;28;20051;-82
2023/09/27 03:01:04;;;;;;;7.53;6.63;;;;;;;19.43;56.25;100240.09;4955232;28;20048;-82
2023/09/27 03:03:33;;;;;;;7.35;6.38;;;;;;;19.39;56.39;100243.03;4955176;28;20056;-83
2023/09/27 03:06:00;;;;;;;9.68;6.82;;;;;;;19.37;56.34;100241.47;4954758;28;20488;-82
2023/09/27 03:08:27;;;;;;;7.78;6.97;;;;;;;19.34;56.33;100237.25;4955060;28;20051;-81
2023/09/27 03:10:53;;;;;;;8.70;7.63;;;;;;;19.31;56.67;100242.84;4954456;28;20047;-83
2023/09/27 03:13:20;;;;;;;9.70;7.50;;;;;;;19.28;56.54;100229.75;4954839;29;20058;-83
2023/09/27 03:15:58;;;;;;;7.18;6.47;;;;;;;19.23;56.98;100229.31;4953504;29;20071;-82
2023/09/27 03:18:26;;;;;;;10.18;6.78;;;;;;;19.24;56.54;100215.84;4954652;29;20496;-83
2023/09/27 03:20:52;;;;;;;10.75;7.35;;;;;;;19.23;56.74;100223.97;4954466;29;20055;-83
2023/09/27 03:23:19;;;;;;;9.50;7.65;;;;;;;19.20;56.95;100219.75;4954521;28;20063;-82
2023/09/27 03:25:48;;;;;;;10.15;7.82;;;;;;;19.18;56.84;100220.84;4954299;28;20089;-82
2023/09/27 03:28:15;;;;;;;9.68;7.63;;;;;;;19.16;56.83;100210.31;4954457;29;20558;-83
2023/09/27 03:30:41;;;;;;;9.80;7.97;;;;;;;19.12;57.08;100215.06;4954075;28;20059;-81
2023/09/27 03:33:08;;;;;;;9.43;7.80;;;;;;;19.12;56.86;100222.22;4954378;29;20066;-82
2023/09/27 03:35:36;;;;;;;8.73;7.05;;;;;;;19.09;57.12;100226.00;4954299;28;20054;-82
2023/09/27 03:38:03;;;;;;;13.00;7.35;;;;;;;19.07;57.04;100235.97;4953044;28;20143;-82
2023/09/27 03:40:29;;;;;;;11.00;8.50;;;;;;;19.05;56.84;100234.34;4954410;28;20470;-82
2023/09/27 03:42:56;;;;;;;11.50;8.45;;;;;;;19.02;57.15;100231.00;4953921;28;20485;-82
2023/09/27 03:45:23;;;;;;;10.15;8.80;;;;;;;18.99;57.28;100228.56;4954147;29;20047;-81
2023/09/27 03:47:49;;;;;;;8.60;7.63;;;;;;;18.98;57.08;100232.22;4953063;29;20094;-82
2023/09/27 03:50:17;;;;;;;9.35;8.32;;;;;;;18.97;57.19;100232.34;4953794;28;20055;-82
2023/09/27 03:52:44;;;;;;;8.43;6.85;;;;;;;18.94;57.61;100240.59;4953801;28;20055;-82
2023/09/27 03:55:11;;;;;;;12.00;8.52;;;;;;;18.92;57.58;100242.56;4953633;29;20386;-82
2023/09/27 03:57:40;;;;;;;11.80;9.38;;;;;;;18.90;57.62;100240.03;4953938;28;20059;-81
2023/09/27 04:00:13;;;;;;;10.40;8.30;;;;;;;18.88;57.60;100237.50;4952936;28;20089;-84
2023/09/27 04:02:41;;;;;;;11.02;8.52;;;;;;;18.86;57.56;100227.94;4953488;29;20560;-82
2023/09/27 04:05:09;;;;;;;9.05;8.15;;;;;;;18.85;57.48;100237.78;4953604;28;20047;-82
2023/09/27 04:07:36;;;;;;;12.88;9.52;;;;;;;18.82;57.56;100243.34;4953957;28;20085;-81
2023/09/27 04:10:03;;;;;;;15.13;9.40;;;;;;;18.81;57.60;100246.16;4953762;28;20058;-82
2023/09/27 04:12:30;;;;;;;14.13;10.45;;;;;;;18.79;57.98;100235.59;4953134;28;20047;-82
2023/09/27 04:14:56;;;;;;;13.68;9.45;;;;;;;18.78;57.80;100233.06;4952023;29;20142;-82
2023/09/27 04:17:23;;;;;;;11.43;9.88;;;;;;;18.77;58.17;100234.91;4953531;28;20093;-81
2023/09/27 04:19:50;;;;;;;13.02;10.52;;;;;;;18.77;58.57;100239.38;4953702;29;20070;-82
2023/09/27 04:22:17;;;;;;;15.48;10.25;;;;;;;18.77;58.23;100234.03;4951764;29;20460;-81
2023/09/27 04:24:44;;;;;;;13.68;10.00;;;;;;;18.76;58.54;100238.53;4953144;28;20134;-82
2023/09/27 04:27:10;;;;;;;10.57;9.18;;;;;;;18.77;58.36;100232.25;4953548;28;20117;-82
2023/09/27 04:29:37;;;;;;;11.02;9.38;;;;;;;18.75;58.40;100234.16;4953394;28;20420;-81
2023/09/27 04:32:04;;;;;;;12.20;9.45;;;;;;;18.75;58.16;100237.69;5112790;23;20055;-76
2023/09/27 04:34:30;;;;;;;11.00;9.18;;;;;;;18.75;58.25;100235.03;4953081;28;20461;-75
2023/09/27 04:36:57;;;;;;;10.25;8.55;;;;;;;18.74;58.15;100240.47;4953666;28;20055;-77
2023/09/27 04:39:27;;;;;;;10.15;8.95;;;;;;;18.71;58.52;100236.25;4953349;28;20056;-75
2023/09/27 04:41:53;;;;;;;9.77;8.60;;;;;;;18.70;58.28;100244.38;4953213;28;20527;-76
2023/09/27 04:44:20;;;;;;;11.57;9.77;;;;;;;18.67;58.07;100236.63;4953191;29;20085;-79
2023/09/27 04:46:46;;;;;;;14.63;9.60;;;;;;;18.64;58.09;100234.25;4953255;29;20043;-75
2023/09/27 04:49:12;;;;;;;11.80;10.00;;;;;;;18.61;58.23;100241.50;4953202;29;20047;-75
2023/09/27 04:51:39;;;;;;;11.82;10.05;;;;;;;18.59;58.40;100243.47;4953176;28;20051;-76
2023/09/27 04:54:07;;;;;;;14.63;10.88;;;;;;;18.55;58.79;100236.69;4952441;28;20579;-81
2023/09/27 04:56:34;;;;;;;11.98;10.27;;;;;;;18.53;58.68;100243.09;4952886;28;20059;-75
2023/09/27 04:59:01;;;;;;;11.75;9.77;;;;;;;18.50;58.71;100238.88;4952792;28;20492;-77
2023/09/27 05:01:28;;;;;;;11.70;9.07;;;;;;;18.48;58.70;100241.69;4952894;28;20055;-80
2023/09/27 05:03:55;;;;;;;11.25;9.75;;;;;;;18.46;58.67;100237.44;4951595;29;20164;-77
2023/09/27 05:06:21;;;;;;;12.75;10.38;;;;;;;18.44;59.03;100240.25;4953152;28;20053;-76
2023/09/27 05:08:49;;;;;;;14.88;10.52;;;;;;;18.41;59.05;100244.97;4953002;28;20134;-77
2023/09/27 05:11:20;;;;;;;11.75;9.48;;;;;;;18.39;59.02;100253.09;4952698;28;20111;-80
2023/09/27 05:13:47;;;;;;;13.90;10.95;;;;;;;18.37;59.08;100263.06;4952272;28;20051;-80
2023/09/27 05:16:13;;;;;;;11.65;10.45;;;;;;;18.35;59.21;100260.50;4953152;28;20114;-77
2023/09/27 05:18:41;;;;;;;13.85;11.30;;;;;;;18.34;59.21;100256.16;4953026;28;20047;-77
2023/09/27 05:21:07;;;;;;;13.35;11.30;;;;;;;18.33;59.38;100253.63;4953069;28;20054;-79
2023/09/27 05:23:34;;;;;;;16.50;11.48;;;;;;;18.32;59.54;100250.09;4952398;28;20047;-77
2023/09/27 05:26:01;;;;;;;12.88;10.82;;;;;;;18.32;59.44;100247.41;4952610;28;20488;-76
2023/09/27 05:28:28;;;;;;;16.23;11.80;;;;;;;18.32;59.64;100250.09;4952726;28;20055;-79
2023/09/27 05:30:55;;;;;;;12.98;11.13;;;;;;;18.32;59.64;100244.75;4952781;28;20055;-77
2023/09/27 05:33:22;;;;;;;11.35;9.65;;;;;;;18.31;59.62;100240.41;4953615;28;20103;-76
2023/09/27 05:35:55;;;;;;;12.10;9.95;;;;;;;18.28;59.89;100248.66;4952488;28;20051;-78
2023/09/27 05:38:21;;;;;;;13.52;10.95;;;;;;;18.32;59.30;100252.75;4952916;29;20130;-76
2023/09/27 05:40:48;;;;;;;13.52;11.25;;;;;;;18.31;59.71;100253.72;4953124;28;20114;-77
2023/09/27 05:43:15;;;;;;;14.77;12.13;;;;;;;18.32;59.78;100252.75;4952928;28;20067;-76
2023/09/27 05:45:41;;;;;;;11.70;10.48;;;;;;;18.32;59.64;100257.25;4953283;28;20051;-76
2023/09/27 05:48:08;;;;;;;16.00;11.02;;;;;;;18.32;59.87;100263.41;4951879;28;20075;-76
2023/09/27 05:50:35;;;;;;;12.23;10.85;;;;;;;18.32;59.74;100263.41;4952911;28;20082;-77
2023/09/27 05:53:01;;;;;;;16.05;12.40;;;;;;;18.34;59.96;100281.94;4952255;28;20484;-80
2023/09/27 05:55:28;;;;;;;16.88;12.07;;;;;;;18.35;60.15;100280.97;4952648;28;20047;-77
2023/09/27 05:57:55;;;;;;;12.07;10.77;;;;;;;18.36;59.92;100280.03;4952669;28;20047;-76
2023/09/27 06:00:23;;;;;;;15.43;11.60;;;;;;;18.38;60.25;100287.91;4952933;28;20062;-79
2023/09/27 06:02:50;;;;;;;12.38;10.85;;;;;;;18.39;60.33;100281.59;4952660;28;20055;-78
2023/09/27 06:05:17;;;;;;;12.05;10.75;;;;;;;18.40;60.13;100273.47;4952314;28;20055;-76
2023/09/27 06:07:43;;;;;;;15.63;10.48;;;;;;;18.42;60.29;100273.31;4952807;28;20087;-75
2023/09/27 06:10:10;;;;;;;11.65;9.38;;;;;;;18.45;60.22;100281.06;4952692;28;20139;-77
2023/09/27 06:12:37;;;;;;;11.57;10.15;;;;;;;18.48;60.21;100280.81;4952205;28;20055;-79
2023/09/27 06:15:04;;;;;;;12.50;11.07;;;;;;;18.51;60.29;100301.91;4952249;28;20094;-77
2023/09/27 06:17:30;;;;;;;12.93;11.18;;;;;;;18.54;60.42;100316.81;4952674;28;20051;-76
2023/09/27 06:19:57;;;;;;;15.88;10.95;;;;;;;18.57;60.48;100320.06;4951459;28;20078;-78
2023/09/27 06:22:24;;;;;;;14.27;11.05;;;;;;;18.59;60.55;100309.28;4951008;28;20051;-75
2023/09/27 06:24:51;;;;;;;13.93;11.00;;;;;;;18.62;60.24;100315.19;4954187;28;20461;-78
2023/09/27 06:27:18;;;;;;;11.98;10.50;;;;;;;18.65;60.17;100318.59;4955329;28;20055;-78
2023/09/27 06:29:44;;;;;;;11.93;10.73;;;;;;;18.67;60.21;100313.97;4955566;28;20051;-77
2023/09/27 06:32:11;;;;;;;15.15;10.80;;;;;;;18.68;59.98;100316.50;4955575;28;20118;-80
2023/09/27 06:34:37;;;;;;;14.48;10.85;;;;;;;18.70;60.34;100309.25;4954111;28;20051;-85
2023/09/27 06:37:07;;;;;;;13.43;11.35;;;;;;;18.71;60.18;100310.94;4954174;28;20118;-81
2023/09/27 06:39:33;;;;;;;13.50;11.15;;;;;;;18.73;60.07;100300.13;4954474;28;20214;-79
2023/09/27 06:42:00;;;;;;;12.43;11.13;;;;;;;18.75;60.31;100311.50;4954593;28;20142;-80
2023/09/27 06:44:26;;;;;;;11.50;9.85;;;;;;;18.77;60.44;100317.56;4952723;28;20055;-78
2023/09/27 06:46:54;;;;;;;12.65;9.43;;;;;;;18.79;60.31;100325.41;4954324;29;20390;-80
2023/09/27 06:49:20;;;;;;;12.45;10.07;;;;;;;18.80;60.36;100327.97;4954445;29;20070;-81
2023/09/27 06:51:47;;;;;;;16.25;9.95;;;;;;;18.82;60.20;100336.72;4955121;28;20141;-77
2023/09/27 06:54:14;;;;;;;12.02;9.23;;;;;;;18.84;60.03;100329.41;4955260;28;20051;-78
2023/09/27 06:56:41;;;;;;;12.68;9.25;;;;;;;18.87;60.42;100331.81;4955506;28;20047;-77
2023/09/27 06:59:08;;;;;;;11.05;9.45;;;;;;;18.89;60.38;100327.19;4955414;28;20062;-79
2023/09/27 07:01:35;;;;;;;11.57;10.10;;;;;;;18.92;60.69;100333.25;4955350;28;20062;-76
2023/09/27 07:04:04;;;;;;;11.38;9.77;;;;;;;18.95;60.54;100331.19;4955026;28;20054;-76
2023/09/27 07:06:31;;;;;;;12.55;9.98;;;;;;;18.99;60.67;100316.63;4954040;29;20126;-78
2023/09/27 07:08:57;;;;;;;11.85;9.23;;;;;;;19.02;60.77;100312.84;4955183;28;20051;-80
2023/09/27 07:11:25;;;;;;;14.52;9.85;;;;;;;19.07;60.68;100310.69;4954953;29;20074;-76
2023/09/27 07:13:51;;;;;;;11.07;9.35;;;;;;;19.12;60.65;100313.81;4954789;28;20055;-77
2023/09/27 07:16:26;;;;;;;10.00;8.93;;;;;;;19.19;61.23;100299.94;4954710;28;20102;-75
2023/09/27 07:18:53;;;;;;;11.13;10.02;;;;;;;19.26;60.92;100287.75;4954829;28;20551;-80
2023/09/27 07:21:20;;;;;;;13.10;10.18;;;;;;;19.35;60.79;100283.44;4954967;28;20074;-76
2023/09/27 07:23:49;;;;;;;12.52;9.57;;;;;;;19.41;60.97;100277.59;4954629;28;20055;-82
2023/09/27 07:26:16;;;;;;;14.45;9.45;;;;;;;19.51;60.69;100277.66;4955010;28;20381;-78
2023/09/27 07:28:43;;;;;;;13.80;9.57;;;;;;;19.59;60.63;100284.97;4954699;28;20043;-75
2023/09/27 07:31:12;;;;;;;13.05;9.88;;;;;;;19.66;60.65;100289.66;4954651;29;20130;-77
2023/09/27 07:33:39;;;;;;;11.50;9.60;;;;;;;19.74;60.62;100272.94;4954762;28;20047;-75
2023/09/27 07:36:09;;;;;;;11.10;8.90;;;;;;;19.83;60.50;100271.31;4954582;28;20476;-77
2023/09/27 07:38:37;;;;;;;12.07;9.25;;;;;;;19.91;60.50;100279.50;4953675;29;20044;-75
2023/09/27 07:41:04;;;;;;;11.50;9.27;;;;;;;20.00;60.28;100287.72;4954191;28;20059;-80
2023/09/27 07:43:31;;;;;;;12.02;9.43;;;;;;;20.09;60.43;100286.88;4954435;29;20499;-77
2023/09/27 07:46:00;;;;;;;13.20;10.27;;;;;;;20.19;60.83;100284.25;4953938;28;20423;-79
2023/09/27 07:48:27;;;;;;;11.45;9.02;;;;;;;20.29;60.46;100290.44;4952943;29;20083;-76
2023/09/27 07:50:54;;;;;;;13.63;9.70;;;;;;;20.39;60.35;100300.28;4954296;28;20436;-76
2023/09/27 07:53:20;;;;;;;12.05;10.27;;;;;;;20.49;59.90;100306.53;4954128;28;20174;-78
2023/09/27 07:55:50;;;;;;;12.50;9.70;;;;;;;20.57;60.14;100303.16;4953696;28;20059;-78
2023/09/27 07:58:17;;;;;;;15.35;10.20;;;;;;;20.66;59.73;100299.63;4954178;29;20082;-79
2023/09/27 08:00:44;;;;;;;16.92;9.77;;;;;;;20.72;59.63;100289.34;4954114;28;20054;-76
2023/09/27 08:03:11;;;;;;;11.77;9.18;;;;;;;20.78;59.63;100289.63;4954139;28;20512;-80
2023/09/27 08:05:43;;;;;;;11.65;8.88;;;;;;;20.85;59.51;100292.56;4953317;28;20065;-78
2023/09/27 08:08:11;;;;;;;12.70;9.17;;;;;;;20.90;59.27;100298.38;4953545;29;20110;-75
2023/09/27 08:10:45;;;;;;;12.18;9.77;;;;;;;20.96;nan;100307.66;4954813;29;20086;-77
2023/09/27 08:13:17;;;;;;;11.15;8.50;;;;;;;20.97;59.33;100304.00;4954430;28;20492;-78
2023/09/27 08:15:47;;;;;;;12.70;9.50;;;;;;;21.01;59.29;100304.56;4954652;29;20051;-76
2023/09/27 08:18:15;;;;;;;14.20;9.18;;;;;;;21.04;59.12;100293.59;4954310;28;20523;-75
2023/09/27 08:20:42;;;;;;;10.77;9.00;;;;;;;21.07;59.06;100287.94;4954511;29;20051;-76
2023/09/27 08:23:08;;;;;;;12.32;8.63;;;;;;;21.11;59.08;100300.03;4954308;29;20047;-76
2023/09/27 08:25:37;;;;;;;12.05;9.15;;;;;;;21.16;59.31;100288.94;4954050;29;20043;-78
2023/09/27 08:28:05;;;;;;;13.25;9.20;;;;;;;21.22;59.37;100285.66;4954161;28;20047;-76
2023/09/27 08:30:32;;;;;;;13.02;9.75;;;;;;;21.29;59.18;100280.56;4954213;29;20054;-78
2023/09/27 08:32:59;;;;;;;13.93;9.20;;;;;;;21.38;59.23;100286.91;4952399;28;20128;-81
2023/09/27 08:35:26;;;;;;;13.95;10.85;;;;;;;21.46;59.00;100290.53;4953559;29;20090;-76
2023/09/27 08:37:52;;;;;;;13.80;9.73;;;;;;;21.55;58.85;100298.69;4953831;28;20062;-79
2023/09/27 08:40:19;;;;;;;13.05;9.68;;;;;;;21.64;58.51;100295.13;4953961;28;20047;-77
2023/09/27 08:42:47;;;;;;;11.38;8.98;;;;;;;21.71;58.33;100288.19;4954073;28;20146;-79
2023/09/27 08:45:14;;;;;;;16.05;9.45;;;;;;;21.80;58.16;100289.19;4953493;28;20125;-76
2023/09/27 08:47:44;;;;;;;12.88;9.27;;;;;;;21.87;58.45;100284.06;4954017;29;20051;-75
2023/09/27 08:50:17;;;;;;;13.10;9.85;;;;;;;21.94;57.97;100287.81;4952993;29;20075;-76
2023/09/27 08:52:48;;;;;;;;;;;;;;;21.99;58.06;100288.22;4954405;29;20059;-76
2023/09/27 08:55:16;;;;;;;15.55;8.52;;;;;;;22.15;58.33;100284.03;4953242;29;19929;-75
2023/09/27 08:57:47;;;;;;;14.75;10.73;;;;;;;22.20;57.91;100287.09;4953438;28;20059;-77
2023/09/27 09:00:25;;;;;;;15.18;10.27;;;;;;;22.30;58.05;100284.38;4952973;28;20094;-78
2023/09/27 09:02:57;;;;;;;13.40;10.30;;;;;;;22.39;58.31;100279.94;4953640;28;20083;-76
2023/09/27 09:05:27;;;;;;;17.98;10.55;;;;;;;22.50;58.14;100281.56;4953343;28;20051;-75
2023/09/27 09:07:56;;;;;;;11.93;10.43;;;;;;;22.58;58.20;100281.66;4952184;29;20074;-82
2023/09/27 09:10:23;;;;;;;13.77;10.10;;;;;;;22.66;57.56;100280.91;4953269;28;20078;-81
2023/09/27 09:12:50;;;;;;;12.55;10.18;;;;;;;22.73;57.57;100283.81;4934760;29;20051;-80
2023/09/27 09:15:40;;;;;;;12.95;9.23;;;;;;;22.75;57.26;100289.84;4934452;29;20048;-76
2023/09/27 09:18:11;;;;;;;12.88;9.63;;;;;;;22.86;57.64;100291.44;4934823;29;20068;-76
2023/09/27 09:20:57;;;;;;;13.83;9.83;;;;;;;22.88;56.88;100284.09;4934226;29;20055;-76
2023/09/27 09:23:33;;;;;;;12.70;9.43;;;;;;;22.94;56.75;100272.72;4946353;29;20127;-76
2023/09/27 09:26:02;;;;;;;12.65;9.57;;;;;;;23.02;56.75;100272.78;4950704;28;20126;-80
2023/09/27 09:28:29;;;;;;;15.23;10.15;;;;;;;23.06;57.03;100273.31;4952089;28;20052;-75
2023/09/27 09:30:56;;;;;;;13.77;10.50;;;;;;;23.11;56.86;100273.72;4952677;28;20578;-75
2023/09/27 09:33:28;;;;;;;14.55;9.77;;;;;;;23.16;56.80;100275.91;4953046;28;20500;-81
2023/09/27 09:35:56;;;;;;;11.52;9.75;;;;;;;23.23;56.93;100270.75;4952531;29;20055;-79
2023/09/27 09:38:29;;;;;;;13.40;10.40;;;;;;;23.28;56.86;100277.31;4952126;29;20059;-76
2023/09/27 09:40:57;;;;;;;16.25;10.45;;;;;;;23.36;56.94;100276.56;4950938;29;20129;-76
2023/09/27 09:43:37;;;;;;;15.18;10.77;;;;;;;23.43;56.25;100279.44;4952307;28;20089;-77
2023/09/27 09:46:10;;;;;;;13.18;10.60;;;;;;;23.54;56.48;100286.41;4952098;28;20491;-78
2023/09/27 09:48:40;;;;;;;14.60;10.10;;;;;;;23.60;56.43;100280.41;4952233;28;20415;-79
2023/09/27 09:51:07;;;;;;;12.63;10.88;;;;;;;23.68;55.84;100283.13;4952654;28;20239;-79
2023/09/27 09:53:39;;;;;;;11.13;9.82;;;;;;;23.75;55.66;100283.31;4951308;29;20082;-76
2023/09/27 09:56:08;;;;;;;11.82;9.80;;;;;;;23.87;56.07;100283.00;4952737;28;20058;-77
2023/09/27 09:59:03;;;;;;;14.35;10.40;;;;;;;23.97;55.36;100280.19;4955124;29;20050;-78
2023/09/27 10:01:37;;;;;;;13.18;9.13;;;;;;;24.07;57.90;100276.38;4955863;28;20094;-80
2023/09/27 10:04:05;;;;;;;13.70;10.25;;;;;;;24.22;56.20;100275.75;4952624;28;20130;-81
2023/09/27 10:06:33;;;;;;;12.00;9.48;;;;;;;24.33;56.74;100271.91;4954933;29;20047;-78
2023/09/27 10:09:15;;;;;;;17.90;9.65;;;;;;;24.48;55.75;100272.09;4954912;29;20103;-77
2023/09/27 10:11:44;;;;;;;13.02;9.77;;;;;;;24.59;55.67;100268.25;4955707;28;20121;-79
2023/09/27 10:14:15;;;;;;;13.05;9.35;;;;;;;24.68;55.77;100259.19;4955979;28;20134;-80
2023/09/27 10:16:43;;;;;;;16.35;10.88;;;;;;;24.78;54.04;100268.94;4954588;29;20492;-81
2023/09/27 10:19:10;;;;;;;13.18;10.07;;;;;;;24.85;54.60;100265.44;4955923;28;20055;-80
2023/09/27 10:22:01;;;;;;;14.75;10.15;;;;;;;24.90;54.85;100264.09;4955919;28;20098;-81
2023/09/27 10:24:28;;;;;;;12.68;10.27;;;;;;;25.04;55.17;100263.38;4955255;28;20055;-76
2023/09/27 10:26:54;;;;;;;13.30;10.13;;;;;;;25.17;56.36;100273.66;4955466;28;20114;-80
2023/09/27 10:29:22;;;;;;;13.30;10.60;;;;;;;25.29;56.17;100266.03;4955786;28;20055;-81
2023/09/27 10:31:58;;;;;;;13.45;9.55;;;;;;;25.40;55.63;100269.38;4953895;23;20142;-75
2023/09/27 10:34:27;;;;;;;12.93;10.38;;;;;;;25.55;54.41;100274.88;4955227;28;20135;-77
2023/09/27 10:36:55;;;;;;;14.40;9.93;;;;;;;25.68;54.89;100280.59;4955351;28;20051;-78
2023/09/27 10:40:19;;;;;;;15.68;9.20;;;;;;;25.79;55.31;100276.69;4955315;28;20062;-74
2023/09/27 10:42:46;;;;;;;11.50;9.07;;;;;;;25.97;53.70;100265.63;4948605;29;20121;-76
2023/09/27 10:45:13;;;;;;;11.10;8.35;;;;;;;26.05;53.56;100259.34;4955327;29;20118;-77
2023/09/27 10:47:40;;;;;;;10.57;8.18;;;;;;;26.13;53.17;100263.88;4955230;28;20050;-74
2023/09/27 10:50:08;;;;;;;10.60;6.85;;;;;;;26.19;53.07;100260.47;4955402;29;20063;-75
2023/09/27 10:52:37;;;;;;;9.05;5.80;;;;;;;26.27;53.80;100257.75;4954717;29;20055;-79
2023/09/27 10:55:13;;;;;;;8.90;4.80;;;;;;;26.36;53.44;100255.00;4955031;28;20130;-75
2023/09/27 10:57:41;;;;;;;8.60;4.93;;;;;;;26.54;51.96;100254.69;4955094;29;20083;-75
2023/09/27 11:00:12;;;;;;;9.27;5.15;;;;;;;26.68;51.71;100244.94;4954879;29;20083;-78
2023/09/27 11:02:39;;;;;;;7.72;5.18;;;;;;;26.85;52.05;100244.81;4951808;29;20479;-76
2023/09/27 11:05:07;;;;;;;6.80;4.75;;;;;;;26.99;50.46;100241.31;4953162;28;20039;-78
2023/09/27 11:07:45;;;;;;;6.35;4.13;;;;;;;27.15;50.89;100239.47;4953455;28;20083;-75
2023/09/27 11:10:37;;;;;;;7.85;4.10;;;;;;;27.39;50.63;100237.53;4951862;28;20071;-75
2023/09/27 11:13:11;;;;;;;5.13;4.38;;;;;;;27.82;50.61;100236.84;4952983;28;20059;-75
2023/09/27 11:15:40;;;;;;;4.60;3.60;;;;;;;28.35;51.42;100230.38;4953140;28;20047;-76
2023/09/27 11:18:10;;;;;;;5.35;3.45;;;;;;;28.93;49.78;100229.41;4954775;28;20105;-76
2023/09/27 11:20:39;;;;;;;6.32;4.07;;;;;;;29.49;47.65;100226.81;4954695;28;20049;-78
2023/09/27 11:23:06;;;;;;;4.63;4.13;;;;;;;29.91;47.61;100222.19;4954565;28;20055;-73
2023/09/27 11:25:36;;;;;;;5.82;3.95;;;;;;;30.28;47.06;100211.00;4954555;28;20059;-79